Terminal Aerodrome Forecast
Issued by NWS

Home | Current Version | Previous Version | Text Only | Print | Product List | Glossary On
Versions: 1 2 3 4 5 6 7 8 9 10 11 12 13 14
000
FTUS45 KTFX 020500
TAFCTB
TAF
KCTB 020520Z 0206/0306 35020G27KT P6SM VCSH SCT035 BKN050
      TEMPO 0206/0209 6SM -SN BKN035
     FM020900 34014KT P6SM SCT045 BKN080
     FM021800 32010KT P6SM VCSH SCT030 BKN060 PROB30 0221/0302
      -SHRASN BKN030
     FM030200 27010KT P6SM BKN090=

USA.gov is the U.S. government's official web portal to all federal, state and local government web resources and services.